sensor_id;sensor_type;location;lat;lon;timestamp;P1;durP1;ratioP1;P2;durP2;ratioP2
77262;SDS011;66373;52.334;4.806;2023-02-26T00:00:11;28.05;;;23.63;;
77262;SDS011;66373;52.334;4.806;2023-02-26T00:02:40;28.73;;;23.65;;
77262;SDS011;66373;52.334;4.806;2023-02-26T00:05:13;30.17;;;24.77;;
77262;SDS011;66373;52.334;4.806;2023-02-26T00:07:43;30.52;;;24.55;;
77262;SDS011;66373;52.334;4.806;2023-02-26T00:10:11;30.67;;;24.05;;
77262;SDS011;66373;52.334;4.806;2023-02-26T00:12:40;32.33;;;24.10;;
77262;SDS011;66373;52.334;4.806;2023-02-26T00:15:09;32.30;;;26.02;;
77262;SDS011;66373;52.334;4.806;2023-02-26T00:17:43;32.83;;;28.00;;
77262;SDS011;66373;52.334;4.806;2023-02-26T00:20:17;33.63;;;27.80;;
77262;SDS011;66373;52.334;4.806;2023-02-26T00:22:45;34.03;;;28.95;;
77262;SDS011;66373;52.334;4.806;2023-02-26T00:25:12;31.13;;;27.10;;
77262;SDS011;66373;52.334;4.806;2023-02-26T00:27:41;32.17;;;27.42;;
77262;SDS011;66373;52.334;4.806;2023-02-26T00:30:10;32.63;;;27.85;;
77262;SDS011;66373;52.334;4.806;2023-02-26T00:32:38;34.03;;;29.13;;
77262;SDS011;66373;52.334;4.806;2023-02-26T00:35:07;35.03;;;28.40;;
77262;SDS011;66373;52.334;4.806;2023-02-26T00:37:58;34.80;;;28.80;;
77262;SDS011;66373;52.334;4.806;2023-02-26T00:40:28;33.08;;;29.23;;
77262;SDS011;66373;52.334;4.806;2023-02-26T00:43:02;35.70;;;27.08;;
77262;SDS011;66373;52.334;4.806;2023-02-26T00:45:31;34.63;;;29.60;;
77262;SDS011;66373;52.334;4.806;2023-02-26T00:48:06;34.40;;;29.40;;
77262;SDS011;66373;52.334;4.806;2023-02-26T00:50:58;33.53;;;26.95;;
77262;SDS011;66373;52.334;4.806;2023-02-26T00:53:31;34.50;;;27.17;;
77262;SDS011;66373;52.334;4.806;2023-02-26T00:56:02;34.72;;;29.38;;
77262;SDS011;66373;52.334;4.806;2023-02-26T00:58:29;35.13;;;29.40;;
77262;SDS011;66373;52.334;4.806;2023-02-26T01:00:58;31.55;;;27.73;;
77262;SDS011;66373;52.334;4.806;2023-02-26T01:03:26;33.97;;;27.98;;
77262;SDS011;66373;52.334;4.806;2023-02-26T01:05:54;31.27;;;25.80;;
77262;SDS011;66373;52.334;4.806;2023-02-26T01:08:22;32.60;;;25.92;;
77262;SDS011;66373;52.334;4.806;2023-02-26T01:10:59;31.80;;;26.88;;
77262;SDS011;66373;52.334;4.806;2023-02-26T01:13:27;31.02;;;26.52;;
77262;SDS011;66373;52.334;4.806;2023-02-26T01:15:58;29.15;;;26.00;;
77262;SDS011;66373;52.334;4.806;2023-02-26T01:18:32;32.42;;;27.25;;
77262;SDS011;66373;52.334;4.806;2023-02-26T01:21:04;30.40;;;25.02;;
77262;SDS011;66373;52.334;4.806;2023-02-26T01:23:40;30.52;;;26.25;;
77262;SDS011;66373;52.334;4.806;2023-02-26T01:26:14;29.35;;;25.08;;
77262;SDS011;66373;52.334;4.806;2023-02-26T01:28:45;31.30;;;26.25;;
77262;SDS011;66373;52.334;4.806;2023-02-26T01:31:15;25.65;;;22.85;;
77262;SDS011;66373;52.334;4.806;2023-02-26T01:33:52;27.88;;;22.17;;
77262;SDS011;66373;52.334;4.806;2023-02-26T01:36:27;29.08;;;23.05;;
77262;SDS011;66373;52.334;4.806;2023-02-26T01:39:01;28.48;;;24.10;;
77262;SDS011;66373;52.334;4.806;2023-02-26T01:41:38;29.48;;;23.33;;
77262;SDS011;66373;52.334;4.806;2023-02-26T01:44:11;25.70;;;22.58;;
77262;SDS011;66373;52.334;4.806;2023-02-26T01:46:46;26.52;;;21.05;;
77262;SDS011;66373;52.334;4.806;2023-02-26T01:49:27;26.90;;;22.52;;
77262;SDS011;66373;52.334;4.806;2023-02-26T01:51:55;26.98;;;21.50;;
77262;SDS011;66373;52.334;4.806;2023-02-26T01:54:27;25.92;;;20.55;;
77262;SDS011;66373;52.334;4.806;2023-02-26T01:59:29;24.83;;;19.52;;
77262;SDS011;66373;52.334;4.806;2023-02-26T02:01:58;25.35;;;21.48;;
77262;SDS011;66373;52.334;4.806;2023-02-26T02:04:28;24.50;;;20.38;;
77262;SDS011;66373;52.334;4.806;2023-02-26T02:07:00;21.75;;;17.23;;
77262;SDS011;66373;52.334;4.806;2023-02-26T02:09:28;23.15;;;18.63;;
77262;SDS011;66373;52.334;4.806;2023-02-26T02:12:06;22.33;;;19.88;;
77262;SDS011;66373;52.334;4.806;2023-02-26T02:14:42;21.98;;;18.80;;
77262;SDS011;66373;52.334;4.806;2023-02-26T02:17:18;22.98;;;19.13;;
77262;SDS011;66373;52.334;4.806;2023-02-26T02:20:12;22.02;;;18.02;;
77262;SDS011;66373;52.334;4.806;2023-02-26T02:22:55;22.10;;;18.42;;
77262;SDS011;66373;52.334;4.806;2023-02-26T02:25:53;22.45;;;18.30;;
77262;SDS011;66373;52.334;4.806;2023-02-26T02:28:48;20.42;;;18.15;;
77262;SDS011;66373;52.334;4.806;2023-02-26T02:31:44;20.60;;;16.67;;
77262;SDS011;66373;52.334;4.806;2023-02-26T02:34:17;17.70;;;15.52;;
77262;SDS011;66373;52.334;4.806;2023-02-26T02:36:50;19.08;;;16.20;;
77262;SDS011;66373;52.334;4.806;2023-02-26T02:39:21;20.00;;;15.65;;
77262;SDS011;66373;52.334;4.806;2023-02-26T02:41:55;20.95;;;16.38;;
77262;SDS011;66373;52.334;4.806;2023-02-26T02:44:27;19.38;;;15.30;;
77262;SDS011;66373;52.334;4.806;2023-02-26T02:47:00;19.23;;;15.02;;
77262;SDS011;66373;52.334;4.806;2023-02-26T02:49:33;18.20;;;15.05;;
77262;SDS011;66373;52.334;4.806;2023-02-26T02:52:07;19.33;;;14.93;;
77262;SDS011;66373;52.334;4.806;2023-02-26T02:54:42;17.20;;;14.45;;
77262;SDS011;66373;52.334;4.806;2023-02-26T02:57:14;16.25;;;13.80;;
77262;SDS011;66373;52.334;4.806;2023-02-26T02:59:47;15.43;;;13.00;;
77262;SDS011;66373;52.334;4.806;2023-02-26T03:02:20;15.40;;;12.68;;
77262;SDS011;66373;52.334;4.806;2023-02-26T03:04:52;18.50;;;14.40;;
77262;SDS011;66373;52.334;4.806;2023-02-26T03:07:21;16.10;;;12.40;;
77262;SDS011;66373;52.334;4.806;2023-02-26T03:09:50;14.07;;;12.00;;
77262;SDS011;66373;52.334;4.806;2023-02-26T03:12:19;14.43;;;12.82;;
77262;SDS011;66373;52.334;4.806;2023-02-26T03:14:47;14.45;;;12.55;;
77262;SDS011;66373;52.334;4.806;2023-02-26T03:17:19;13.90;;;12.18;;
77262;SDS011;66373;52.334;4.806;2023-02-26T03:19:59;15.85;;;12.65;;
77262;SDS011;66373;52.334;4.806;2023-02-26T03:22:38;13.77;;;11.27;;
77262;SDS011;66373;52.334;4.806;2023-02-26T03:25:16;12.95;;;11.50;;
77262;SDS011;66373;52.334;4.806;2023-02-26T03:27:51;14.07;;;11.48;;
77262;SDS011;66373;52.334;4.806;2023-02-26T03:30:24;12.60;;;11.20;;
77262;SDS011;66373;52.334;4.806;2023-02-26T03:33:02;11.93;;;10.35;;
77262;SDS011;66373;52.334;4.806;2023-02-26T03:35:37;11.50;;;9.98;;
77262;SDS011;66373;52.334;4.806;2023-02-26T03:38:12;10.65;;;9.55;;
77262;SDS011;66373;52.334;4.806;2023-02-26T03:40:45;11.63;;;9.50;;
77262;SDS011;66373;52.334;4.806;2023-02-26T03:43:17;10.77;;;9.63;;
77262;SDS011;66373;52.334;4.806;2023-02-26T03:45:50;11.50;;;9.20;;
77262;SDS011;66373;52.334;4.806;2023-02-26T03:48:25;10.40;;;9.27;;
77262;SDS011;66373;52.334;4.806;2023-02-26T03:50:57;10.57;;;9.48;;
77262;SDS011;66373;52.334;4.806;2023-02-26T03:54:02;12.40;;;9.00;;
77262;SDS011;66373;52.334;4.806;2023-02-26T03:56:39;11.02;;;8.77;;
77262;SDS011;66373;52.334;4.806;2023-02-26T03:59:29;10.55;;;9.43;;
77262;SDS011;66373;52.334;4.806;2023-02-26T04:02:17;8.75;;;7.85;;
77262;SDS011;66373;52.334;4.806;2023-02-26T04:04:55;10.90;;;8.10;;
77262;SDS011;66373;52.334;4.806;2023-02-26T04:07:26;10.93;;;8.35;;
77262;SDS011;66373;52.334;4.806;2023-02-26T04:09:53;10.23;;;8.25;;
77262;SDS011;66373;52.334;4.806;2023-02-26T04:12:26;9.20;;;7.30;;
77262;SDS011;66373;52.334;4.806;2023-02-26T04:14:54;9.02;;;7.90;;
77262;SDS011;66373;52.334;4.806;2023-02-26T04:17:23;9.40;;;7.25;;
77262;SDS011;66373;52.334;4.806;2023-02-26T04:19:53;8.18;;;6.95;;
77262;SDS011;66373;52.334;4.806;2023-02-26T04:22:21;9.90;;;7.95;;
77262;SDS011;66373;52.334;4.806;2023-02-26T04:24:48;7.70;;;6.45;;
77262;SDS011;66373;52.334;4.806;2023-02-26T04:27:17;8.02;;;7.10;;
77262;SDS011;66373;52.334;4.806;2023-02-26T04:29:45;9.35;;;7.03;;
77262;SDS011;66373;52.334;4.806;2023-02-26T04:32:12;9.00;;;6.43;;
77262;SDS011;66373;52.334;4.806;2023-02-26T04:34:40;6.63;;;5.93;;
77262;SDS011;66373;52.334;4.806;2023-02-26T04:37:10;7.60;;;5.80;;
77262;SDS011;66373;52.334;4.806;2023-02-26T04:39:37;8.55;;;5.88;;
77262;SDS011;66373;52.334;4.806;2023-02-26T04:42:06;6.40;;;5.78;;
77262;SDS011;66373;52.334;4.806;2023-02-26T04:44:34;8.43;;;5.03;;
77262;SDS011;66373;52.334;4.806;2023-02-26T04:47:02;10.02;;;5.43;;
77262;SDS011;66373;52.334;4.806;2023-02-26T04:49:30;6.95;;;5.18;;
77262;SDS011;66373;52.334;4.806;2023-02-26T04:51:58;6.45;;;5.40;;
77262;SDS011;66373;52.334;4.806;2023-02-26T04:54:27;6.40;;;5.72;;
77262;SDS011;66373;52.334;4.806;2023-02-26T04:56:54;6.57;;;5.07;;
77262;SDS011;66373;52.334;4.806;2023-02-26T04:59:21;5.35;;;4.85;;
77262;SDS011;66373;52.334;4.806;2023-02-26T05:01:50;5.57;;;4.55;;
77262;SDS011;66373;52.334;4.806;2023-02-26T05:04:17;6.32;;;5.00;;
77262;SDS011;66373;52.334;4.806;2023-02-26T05:06:48;5.65;;;4.70;;
77262;SDS011;66373;52.334;4.806;2023-02-26T05:09:16;6.25;;;4.78;;
77262;SDS011;66373;52.334;4.806;2023-02-26T05:11:45;7.88;;;4.55;;
77262;SDS011;66373;52.334;4.806;2023-02-26T05:14:12;4.43;;;3.85;;
77262;SDS011;66373;52.334;4.806;2023-02-26T05:16:40;6.03;;;4.07;;
77262;SDS011;66373;52.334;4.806;2023-02-26T05:19:07;4.15;;;3.80;;
77262;SDS011;66373;52.334;4.806;2023-02-26T05:21:34;5.55;;;4.20;;
77262;SDS011;66373;52.334;4.806;2023-02-26T05:24:02;4.60;;;4.03;;
77262;SDS011;66373;52.334;4.806;2023-02-26T05:26:30;4.40;;;3.80;;
77262;SDS011;66373;52.334;4.806;2023-02-26T05:28:58;4.75;;;3.78;;
77262;SDS011;66373;52.334;4.806;2023-02-26T05:31:25;4.47;;;3.35;;
77262;SDS011;66373;52.334;4.806;2023-02-26T05:33:54;4.95;;;3.85;;
77262;SDS011;66373;52.334;4.806;2023-02-26T05:36:21;3.45;;;3.15;;
77262;SDS011;66373;52.334;4.806;2023-02-26T05:38:48;3.92;;;3.20;;
77262;SDS011;66373;52.334;4.806;2023-02-26T05:41:15;4.68;;;3.40;;
77262;SDS011;66373;52.334;4.806;2023-02-26T05:43:42;4.55;;;3.70;;
77262;SDS011;66373;52.334;4.806;2023-02-26T05:46:11;3.42;;;2.90;;
77262;SDS011;66373;52.334;4.806;2023-02-26T05:48:38;3.55;;;3.08;;
77262;SDS011;66373;52.334;4.806;2023-02-26T05:51:05;3.88;;;3.20;;
77262;SDS011;66373;52.334;4.806;2023-02-26T05:53:34;3.08;;;2.72;;
77262;SDS011;66373;52.334;4.806;2023-02-26T05:56:01;3.20;;;2.90;;
77262;SDS011;66373;52.334;4.806;2023-02-26T05:58:30;4.03;;;2.88;;
77262;SDS011;66373;52.334;4.806;2023-02-26T06:00:58;3.92;;;2.90;;
77262;SDS011;66373;52.334;4.806;2023-02-26T06:03:27;3.03;;;2.83;;
77262;SDS011;66373;52.334;4.806;2023-02-26T06:05:55;3.80;;;2.30;;
77262;SDS011;66373;52.334;4.806;2023-02-26T06:08:22;4.13;;;2.78;;
77262;SDS011;66373;52.334;4.806;2023-02-26T06:10:49;3.47;;;2.75;;
77262;SDS011;66373;52.334;4.806;2023-02-26T06:13:17;3.00;;;2.70;;
77262;SDS011;66373;52.334;4.806;2023-02-26T06:15:44;2.83;;;2.20;;
77262;SDS011;66373;52.334;4.806;2023-02-26T06:18:12;4.70;;;2.78;;
77262;SDS011;66373;52.334;4.806;2023-02-26T06:20:41;2.78;;;2.47;;
77262;SDS011;66373;52.334;4.806;2023-02-26T06:23:08;2.78;;;2.47;;
77262;SDS011;66373;52.334;4.806;2023-02-26T06:25:35;2.88;;;2.33;;
77262;SDS011;66373;52.334;4.806;2023-02-26T06:28:03;2.58;;;2.38;;
77262;SDS011;66373;52.334;4.806;2023-02-26T06:30:30;3.22;;;2.35;;
77262;SDS011;66373;52.334;4.806;2023-02-26T06:32:57;4.80;;;2.75;;
77262;SDS011;66373;52.334;4.806;2023-02-26T06:35:24;3.30;;;2.65;;
77262;SDS011;66373;52.334;4.806;2023-02-26T06:37:54;3.15;;;2.50;;
77262;SDS011;66373;52.334;4.806;2023-02-26T06:40:21;2.88;;;2.50;;
77262;SDS011;66373;52.334;4.806;2023-02-26T06:42:48;3.13;;;2.30;;
77262;SDS011;66373;52.334;4.806;2023-02-26T06:45:16;2.58;;;2.38;;
77262;SDS011;66373;52.334;4.806;2023-02-26T06:47:43;3.17;;;2.53;;
77262;SDS011;66373;52.334;4.806;2023-02-26T06:50:11;2.90;;;2.50;;
77262;SDS011;66373;52.334;4.806;2023-02-26T06:52:38;1.98;;;1.85;;
77262;SDS011;66373;52.334;4.806;2023-02-26T06:55:07;2.83;;;2.53;;
77262;SDS011;66373;52.334;4.806;2023-02-26T06:57:35;2.95;;;2.30;;
77262;SDS011;66373;52.334;4.806;2023-02-26T07:00:02;3.10;;;2.20;;
77262;SDS011;66373;52.334;4.806;2023-02-26T07:02:30;2.35;;;2.15;;
77262;SDS011;66373;52.334;4.806;2023-02-26T07:04:58;4.05;;;2.40;;
77262;SDS011;66373;52.334;4.806;2023-02-26T07:07:25;2.45;;;2.15;;
77262;SDS011;66373;52.334;4.806;2023-02-26T07:09:53;2.42;;;2.22;;
77262;SDS011;66373;52.334;4.806;2023-02-26T07:12:21;2.80;;;2.20;;
77262;SDS011;66373;52.334;4.806;2023-02-26T07:14:49;3.47;;;2.60;;
77262;SDS011;66373;52.334;4.806;2023-02-26T07:17:16;2.60;;;2.40;;
77262;SDS011;66373;52.334;4.806;2023-02-26T07:19:46;2.17;;;2.08;;
77262;SDS011;66373;52.334;4.806;2023-02-26T07:22:13;3.35;;;2.30;;
77262;SDS011;66373;52.334;4.806;2023-02-26T07:24:41;2.72;;;2.40;;
77262;SDS011;66373;52.334;4.806;2023-02-26T07:27:09;2.42;;;2.10;;
77262;SDS011;66373;52.334;4.806;2023-02-26T07:29:38;3.13;;;2.33;;
77262;SDS011;66373;52.334;4.806;2023-02-26T07:32:05;3.15;;;2.70;;
77262;SDS011;66373;52.334;4.806;2023-02-26T07:34:33;2.30;;;2.10;;
77262;SDS011;66373;52.334;4.806;2023-02-26T07:37:00;3.45;;;2.10;;
77262;SDS011;66373;52.334;4.806;2023-02-26T07:39:27;3.00;;;2.35;;
77262;SDS011;66373;52.334;4.806;2023-02-26T07:41:54;3.03;;;1.80;;
77262;SDS011;66373;52.334;4.806;2023-02-26T07:44:21;3.90;;;2.17;;
77262;SDS011;66373;52.334;4.806;2023-02-26T07:46:50;2.83;;;2.15;;
77262;SDS011;66373;52.334;4.806;2023-02-26T07:49:17;2.45;;;2.25;;
77262;SDS011;66373;52.334;4.806;2023-02-26T07:51:45;2.50;;;2.10;;
77262;SDS011;66373;52.334;4.806;2023-02-26T07:54:12;1.85;;;1.70;;
77262;SDS011;66373;52.334;4.806;2023-02-26T07:56:39;3.42;;;1.92;;
77262;SDS011;66373;52.334;4.806;2023-02-26T07:59:07;2.25;;;2.00;;
77262;SDS011;66373;52.334;4.806;2023-02-26T08:01:34;2.17;;;2.03;;
77262;SDS011;66373;52.334;4.806;2023-02-26T08:04:03;2.00;;;1.90;;
77262;SDS011;66373;52.334;4.806;2023-02-26T08:06:30;3.05;;;2.00;;
77262;SDS011;66373;52.334;4.806;2023-02-26T08:08:58;2.40;;;2.20;;
77262;SDS011;66373;52.334;4.806;2023-02-26T08:11:26;2.58;;;2.00;;
77262;SDS011;66373;52.334;4.806;2023-02-26T08:13:53;1.80;;;1.70;;
77262;SDS011;66373;52.334;4.806;2023-02-26T08:16:20;3.83;;;1.90;;
77262;SDS011;66373;52.334;4.806;2023-02-26T08:18:47;2.10;;;1.70;;
77262;SDS011;66373;52.334;4.806;2023-02-26T08:21:16;1.77;;;1.67;;
77262;SDS011;66373;52.334;4.806;2023-02-26T08:23:43;3.10;;;1.80;;
77262;SDS011;66373;52.334;4.806;2023-02-26T08:26:10;1.90;;;1.70;;
77262;SDS011;66373;52.334;4.806;2023-02-26T08:28:38;3.03;;;1.70;;
77262;SDS011;66373;52.334;4.806;2023-02-26T08:31:05;3.53;;;1.92;;
77262;SDS011;66373;52.334;4.806;2023-02-26T08:33:32;1.67;;;1.48;;
77262;SDS011;66373;52.334;4.806;2023-02-26T08:36:00;2.60;;;1.83;;
77262;SDS011;66373;52.334;4.806;2023-02-26T08:38:30;1.90;;;1.60;;
77262;SDS011;66373;52.334;4.806;2023-02-26T08:40:57;1.75;;;1.60;;
77262;SDS011;66373;52.334;4.806;2023-02-26T08:43:25;1.70;;;1.60;;
77262;SDS011;66373;52.334;4.806;2023-02-26T08:45:53;1.80;;;1.65;;
77262;SDS011;66373;52.334;4.806;2023-02-26T08:48:22;1.70;;;1.60;;
77262;SDS011;66373;52.334;4.806;2023-02-26T08:50:50;1.83;;;1.73;;
77262;SDS011;66373;52.334;4.806;2023-02-26T08:53:17;1.67;;;1.58;;
77262;SDS011;66373;52.334;4.806;2023-02-26T08:55:48;2.20;;;1.70;;
77262;SDS011;66373;52.334;4.806;2023-02-26T08:58:16;1.50;;;1.40;;
77262;SDS011;66373;52.334;4.806;2023-02-26T09:00:43;1.45;;;1.40;;
77262;SDS011;66373;52.334;4.806;2023-02-26T09:03:11;2.35;;;1.52;;
77262;SDS011;66373;52.334;4.806;2023-02-26T09:05:38;2.13;;;1.60;;
77262;SDS011;66373;52.334;4.806;2023-02-26T09:08:05;2.58;;;1.67;;
77262;SDS011;66373;52.334;4.806;2023-02-26T09:10:33;1.80;;;1.70;;
77262;SDS011;66373;52.334;4.806;2023-02-26T09:13:02;2.40;;;1.70;;
77262;SDS011;66373;52.334;4.806;2023-02-26T09:15:29;3.00;;;2.05;;
77262;SDS011;66373;52.334;4.806;2023-02-26T09:17:57;2.25;;;1.73;;
77262;SDS011;66373;52.334;4.806;2023-02-26T09:20:24;2.50;;;1.60;;
77262;SDS011;66373;52.334;4.806;2023-02-26T09:22:52;2.42;;;1.65;;
77262;SDS011;66373;52.334;4.806;2023-02-26T09:25:19;1.77;;;1.48;;
77262;SDS011;66373;52.334;4.806;2023-02-26T09:27:48;1.83;;;1.55;;
77262;SDS011;66373;52.334;4.806;2023-02-26T09:30:17;3.22;;;1.73;;
77262;SDS011;66373;52.334;4.806;2023-02-26T09:32:44;2.45;;;1.60;;
77262;SDS011;66373;52.334;4.806;2023-02-26T09:35:12;1.67;;;1.58;;
77262;SDS011;66373;52.334;4.806;2023-02-26T09:49:45;1.40;;;1.35;;
77262;SDS011;66373;52.334;4.806;2023-02-26T09:52:19;1.70;;;1.60;;
77262;SDS011;66373;52.334;4.806;2023-02-26T09:54:51;1.80;;;1.70;;
77262;SDS011;66373;52.334;4.806;2023-02-26T09:57:26;2.65;;;1.58;;
77262;SDS011;66373;52.334;4.806;2023-02-26T09:59:56;2.13;;;1.73;;
77262;SDS011;66373;52.334;4.806;2023-02-26T10:02:29;1.58;;;1.35;;
77262;SDS011;66373;52.334;4.806;2023-02-26T10:05:07;1.95;;;1.75;;
77262;SDS011;66373;52.334;4.806;2023-02-26T10:07:43;2.75;;;1.60;;
77262;SDS011;66373;52.334;4.806;2023-02-26T10:10:18;1.98;;;1.50;;
77262;SDS011;66373;52.334;4.806;2023-02-26T10:12:50;1.42;;;1.33;;
77262;SDS011;66373;52.334;4.806;2023-02-26T10:15:19;1.52;;;1.42;;
77262;SDS011;66373;52.334;4.806;2023-02-26T10:17:58;1.92;;;1.40;;
77262;SDS011;66373;52.334;4.806;2023-02-26T10:20:35;1.30;;;1.20;;
77262;SDS011;66373;52.334;4.806;2023-02-26T10:23:06;1.60;;;1.50;;
77262;SDS011;66373;52.334;4.806;2023-02-26T10:25:44;1.70;;;1.52;;
77262;SDS011;66373;52.334;4.806;2023-02-26T10:30:51;2.83;;;1.55;;
77262;SDS011;66373;52.334;4.806;2023-02-26T10:33:32;1.85;;;1.45;;
77262;SDS011;66373;52.334;4.806;2023-02-26T10:36:09;1.58;;;1.38;;
77262;SDS011;66373;52.334;4.806;2023-02-26T10:38:43;2.08;;;1.60;;
77262;SDS011;66373;52.334;4.806;2023-02-26T10:41:17;1.40;;;1.30;;
77262;SDS011;66373;52.334;4.806;2023-02-26T10:43:48;1.65;;;1.52;;
77262;SDS011;66373;52.334;4.806;2023-02-26T10:46:20;1.70;;;1.60;;
77262;SDS011;66373;52.334;4.806;2023-02-26T10:49:05;2.05;;;1.30;;
77262;SDS011;66373;52.334;4.806;2023-02-26T10:51:53;1.20;;;1.20;;
77262;SDS011;66373;52.334;4.806;2023-02-26T10:57:09;1.70;;;1.60;;
77262;SDS011;66373;52.334;4.806;2023-02-26T10:58:29;3.53;;;1.35;;
77262;SDS011;66373;52.334;4.806;2023-02-26T11:00:57;3.22;;;1.75;;
77262;SDS011;66373;52.334;4.806;2023-02-26T11:03:31;6.80;;;1.50;;
77262;SDS011;66373;52.334;4.806;2023-02-26T11:06:03;3.05;;;1.50;;
77262;SDS011;66373;52.334;4.806;2023-02-26T11:08:36;1.88;;;1.60;;
77262;SDS011;66373;52.334;4.806;2023-02-26T11:11:08;3.60;;;1.73;;
77262;SDS011;66373;52.334;4.806;2023-02-26T11:13:36;4.13;;;1.85;;
77262;SDS011;66373;52.334;4.806;2023-02-26T11:16:10;4.50;;;2.03;;
77262;SDS011;66373;52.334;4.806;2023-02-26T11:18:52;3.30;;;1.95;;
77262;SDS011;66373;52.334;4.806;2023-02-26T11:21:21;5.55;;;2.25;;
77262;SDS011;66373;52.334;4.806;2023-02-26T11:24:00;3.08;;;2.35;;
77262;SDS011;66373;52.334;4.806;2023-02-26T11:26:31;4.40;;;2.60;;
77262;SDS011;66373;52.334;4.806;2023-02-26T11:29:02;5.38;;;2.83;;
77262;SDS011;66373;52.334;4.806;2023-02-26T11:31:31;6.95;;;2.63;;
77262;SDS011;66373;52.334;4.806;2023-02-26T11:34:00;6.03;;;3.03;;
77262;SDS011;66373;52.334;4.806;2023-02-26T11:36:44;5.50;;;3.05;;
77262;SDS011;66373;52.334;4.806;2023-02-26T11:39:17;5.38;;;3.38;;
77262;SDS011;66373;52.334;4.806;2023-02-26T11:41:56;7.57;;;3.38;;
77262;SDS011;66373;52.334;4.806;2023-02-26T11:44:45;5.85;;;3.22;;
77262;SDS011;66373;52.334;4.806;2023-02-26T11:47:23;9.25;;;4.00;;
77262;SDS011;66373;52.334;4.806;2023-02-26T11:49:55;7.55;;;4.40;;
77262;SDS011;66373;52.334;4.806;2023-02-26T11:52:31;7.50;;;3.90;;
77262;SDS011;66373;52.334;4.806;2023-02-26T11:58:37;7.05;;;4.45;;
77262;SDS011;66373;52.334;4.806;2023-02-26T12:01:06;6.15;;;4.07;;
77262;SDS011;66373;52.334;4.806;2023-02-26T12:03:36;7.72;;;3.70;;
77262;SDS011;66373;52.334;4.806;2023-02-26T12:06:06;7.65;;;3.97;;
77262;SDS011;66373;52.334;4.806;2023-02-26T12:08:43;7.10;;;3.90;;
77262;SDS011;66373;52.334;4.806;2023-02-26T12:14:19;7.03;;;3.92;;
77262;SDS011;66373;52.334;4.806;2023-02-26T12:19:35;7.55;;;4.07;;
77262;SDS011;66373;52.334;4.806;2023-02-26T12:22:13;9.05;;;4.85;;
77262;SDS011;66373;52.334;4.806;2023-02-26T12:25:10;6.72;;;4.25;;
77262;SDS011;66373;52.334;4.806;2023-02-26T12:27:54;7.75;;;4.00;;
77262;SDS011;66373;52.334;4.806;2023-02-26T12:30:41;9.35;;;3.97;;
77262;SDS011;66373;52.334;4.806;2023-02-26T12:33:22;6.25;;;3.80;;
77262;SDS011;66373;52.334;4.806;2023-02-26T12:36:03;7.15;;;3.67;;
77262;SDS011;66373;52.334;4.806;2023-02-26T12:38:48;6.35;;;3.83;;
77262;SDS011;66373;52.334;4.806;2023-02-26T12:44:09;6.70;;;3.60;;
77262;SDS011;66373;52.334;4.806;2023-02-26T12:46:58;4.75;;;3.40;;
77262;SDS011;66373;52.334;4.806;2023-02-26T12:49:40;6.18;;;3.42;;
77262;SDS011;66373;52.334;4.806;2023-02-26T12:53:18;5.97;;;3.25;;
77262;SDS011;66373;52.334;4.806;2023-02-26T12:56:24;6.35;;;4.10;;
77262;SDS011;66373;52.334;4.806;2023-02-26T12:59:20;7.55;;;3.25;;
77262;SDS011;66373;52.334;4.806;2023-02-26T13:02:16;5.30;;;3.50;;
77262;SDS011;66373;52.334;4.806;2023-02-26T13:05:11;7.05;;;3.30;;
77262;SDS011;66373;52.334;4.806;2023-02-26T13:08:02;6.05;;;3.63;;
77262;SDS011;66373;52.334;4.806;2023-02-26T13:10:38;6.35;;;3.42;;
77262;SDS011;66373;52.334;4.806;2023-02-26T13:16:35;6.07;;;3.55;;
77262;SDS011;66373;52.334;4.806;2023-02-26T13:19:18;7.38;;;3.70;;
77262;SDS011;66373;52.334;4.806;2023-02-26T13:21:57;5.32;;;3.38;;
77262;SDS011;66373;52.334;4.806;2023-02-26T13:24:31;5.80;;;3.75;;
77262;SDS011;66373;52.334;4.806;2023-02-26T13:27:03;8.32;;;3.30;;
77262;SDS011;66373;52.334;4.806;2023-02-26T13:29:34;4.72;;;2.97;;
77262;SDS011;66373;52.334;4.806;2023-02-26T13:32:05;7.22;;;3.50;;
77262;SDS011;66373;52.334;4.806;2023-02-26T13:34:41;6.15;;;3.25;;
77262;SDS011;66373;52.334;4.806;2023-02-26T13:37:26;6.68;;;3.03;;
77262;SDS011;66373;52.334;4.806;2023-02-26T13:40:01;6.60;;;3.20;;
77262;SDS011;66373;52.334;4.806;2023-02-26T13:42:45;3.92;;;2.78;;
77262;SDS011;66373;52.334;4.806;2023-02-26T13:45:20;4.57;;;2.95;;
77262;SDS011;66373;52.334;4.806;2023-02-26T13:50:52;5.82;;;3.58;;
77262;SDS011;66373;52.334;4.806;2023-02-26T13:56:21;3.92;;;2.67;;
77262;SDS011;66373;52.334;4.806;2023-02-26T13:59:24;4.60;;;2.40;;
77262;SDS011;66373;52.334;4.806;2023-02-26T14:01:56;3.83;;;2.40;;
77262;SDS011;66373;52.334;4.806;2023-02-26T14:04:27;3.00;;;2.58;;
77262;SDS011;66373;52.334;4.806;2023-02-26T14:06:58;8.88;;;2.50;;
77262;SDS011;66373;52.334;4.806;2023-02-26T14:09:36;3.72;;;2.50;;
77262;SDS011;66373;52.334;4.806;2023-02-26T14:15:18;4.13;;;2.88;;
77262;SDS011;66373;52.334;4.806;2023-02-26T14:18:01;4.53;;;2.50;;
77262;SDS011;66373;52.334;4.806;2023-02-26T14:20:31;3.90;;;2.70;;
77262;SDS011;66373;52.334;4.806;2023-02-26T14:23:20;4.70;;;2.58;;
77262;SDS011;66373;52.334;4.806;2023-02-26T14:26:08;3.33;;;2.78;;
77262;SDS011;66373;52.334;4.806;2023-02-26T14:28:43;3.35;;;2.33;;
77262;SDS011;66373;52.334;4.806;2023-02-26T14:31:22;6.70;;;2.53;;
77262;SDS011;66373;52.334;4.806;2023-02-26T14:33:59;4.68;;;3.30;;
77262;SDS011;66373;52.334;4.806;2023-02-26T14:36:39;3.70;;;2.50;;
77262;SDS011;66373;52.334;4.806;2023-02-26T14:39:15;2.90;;;2.53;;
77262;SDS011;66373;52.334;4.806;2023-02-26T14:41:51;3.78;;;2.60;;
77262;SDS011;66373;52.334;4.806;2023-02-26T14:44:25;4.38;;;2.35;;
77262;SDS011;66373;52.334;4.806;2023-02-26T14:46:56;3.05;;;2.30;;
77262;SDS011;66373;52.334;4.806;2023-02-26T14:49:25;7.28;;;2.63;;
77262;SDS011;66373;52.334;4.806;2023-02-26T14:52:03;2.75;;;2.15;;
77262;SDS011;66373;52.334;4.806;2023-02-26T14:54:51;3.30;;;2.72;;
77262;SDS011;66373;52.334;4.806;2023-02-26T14:57:40;2.70;;;2.50;;
77262;SDS011;66373;52.334;4.806;2023-02-26T15:00:20;3.97;;;2.78;;
77262;SDS011;66373;52.334;4.806;2023-02-26T15:03:10;2.88;;;2.42;;
77262;SDS011;66373;52.334;4.806;2023-02-26T15:05:59;2.50;;;2.30;;
77262;SDS011;66373;52.334;4.806;2023-02-26T15:15:02;4.35;;;2.60;;
77262;SDS011;66373;52.334;4.806;2023-02-26T15:17:54;2.58;;;2.38;;
77262;SDS011;66373;52.334;4.806;2023-02-26T15:21:35;4.15;;;2.50;;
77262;SDS011;66373;52.334;4.806;2023-02-26T15:24:37;3.70;;;2.70;;
77262;SDS011;66373;52.334;4.806;2023-02-26T15:27:06;2.80;;;2.50;;
77262;SDS011;66373;52.334;4.806;2023-02-26T15:29:43;3.15;;;2.85;;
77262;SDS011;66373;52.334;4.806;2023-02-26T15:32:16;2.63;;;2.42;;
77262;SDS011;66373;52.334;4.806;2023-02-26T15:34:53;2.72;;;2.30;;
77262;SDS011;66373;52.334;4.806;2023-02-26T15:37:25;2.95;;;2.42;;
77262;SDS011;66373;52.334;4.806;2023-02-26T15:39:54;4.68;;;2.60;;
77262;SDS011;66373;52.334;4.806;2023-02-26T15:42:24;2.63;;;2.42;;
77262;SDS011;66373;52.334;4.806;2023-02-26T15:45:00;3.55;;;2.65;;
77262;SDS011;66373;52.334;4.806;2023-02-26T15:47:30;2.85;;;2.20;;
77262;SDS011;66373;52.334;4.806;2023-02-26T15:49:58;2.90;;;2.70;;
77262;SDS011;66373;52.334;4.806;2023-02-26T15:52:26;2.60;;;2.40;;
77262;SDS011;66373;52.334;4.806;2023-02-26T15:54:55;2.92;;;2.65;;
77262;SDS011;66373;52.334;4.806;2023-02-26T15:57:26;3.30;;;2.50;;
77262;SDS011;66373;52.334;4.806;2023-02-26T16:00:05;2.75;;;2.47;;
77262;SDS011;66373;52.334;4.806;2023-02-26T16:02:39;2.65;;;2.40;;
77262;SDS011;66373;52.334;4.806;2023-02-26T16:05:07;2.20;;;2.00;;